Time;durP1;ratioP1;P1;durP2;ratioP2;P2;SDS_P1;SDS_P2;PMS_P1;PMS_P2;Temp;Humidity;BMP_temperature;BMP_pressure;BME280_temperature;BME280_humidity;BME280_pressure;Samples;Min_cycle;Max_cycle;Signal;HPM_P1;HPM_P2
2022/06/28 00:00:22;;;;;;;8.88;3.50;;;10.30;1.00;;;;;;4971950;28;20027;-76
2022/06/28 00:02:48;;;;;;;8.68;3.40;;;10.40;1.00;;;;;;4962389;28;20463;-76
2022/06/28 00:05:14;;;;;;;8.68;3.30;;;10.40;1.00;;;;;;4955276;28;20065;-76
2022/06/28 00:07:41;;;;;;;8.85;3.13;;;10.30;1.00;;;;;;4955460;28;20419;-76
2022/06/28 00:10:08;;;;;;;10.93;3.83;;;10.50;1.00;;;;;;4974354;28;20471;-76
2022/06/28 00:12:33;;;;;;;5.55;3.20;;;10.50;1.00;;;;;;4974405;28;20023;-76
2022/06/28 00:17:43;;;;;;;7.45;3.13;;;10.60;1.00;;;;;;4974323;28;20038;-76
2022/06/28 00:20:10;;;;;;;9.68;3.50;;;10.70;1.00;;;;;;4974312;28;20027;-76
2022/06/28 00:22:36;;;;;;;9.60;3.47;;;10.80;1.00;;;;;;4972886;28;20139;-76
2022/06/28 00:25:01;;;;;;;7.85;2.85;;;10.70;17.70;;;;;;4974195;28;20027;-77
2022/06/28 00:27:27;;;;;;;8.57;2.83;;;10.80;30.60;;;;;;4972833;28;20366;-76
2022/06/28 00:29:52;;;;;;;10.70;3.10;;;10.60;70.40;;;;;;4974109;28;20102;-76
2022/06/28 00:32:18;;;;;;;8.82;4.20;;;10.60;82.20;;;;;;4974536;28;20034;-76
2022/06/28 00:34:44;;;;;;;5.63;3.03;;;10.60;99.90;;;;;;4990317;28;20093;-76
2022/06/28 00:37:10;;;;;;;12.50;3.50;;;10.70;90.40;;;;;;4993782;28;20033;-76
2022/06/28 00:39:35;;;;;;;6.03;3.38;;;10.60;99.90;;;;;;4993976;28;20098;-76
2022/06/28 00:42:01;;;;;;;10.80;2.78;;;10.70;99.90;;;;;;4984210;28;20022;-76
2022/06/28 00:44:27;;;;;;;9.10;3.30;;;10.80;99.90;;;;;;4992786;28;20053;-76
2022/06/28 00:46:53;;;;;;;18.35;4.18;;;10.70;99.90;;;;;;4972148;28;20070;-76
2022/06/28 00:49:19;;;;;;;10.15;3.22;;;10.80;99.90;;;;;;4972165;28;20114;-76
2022/06/28 00:51:45;;;;;;;8.77;2.72;;;10.90;99.90;;;;;;4986122;28;20042;-76
2022/06/28 00:54:11;;;;;;;12.18;2.95;;;10.80;99.90;;;;;;4973929;28;20462;-76
2022/06/28 00:56:37;;;;;;;11.18;3.17;;;10.80;99.90;;;;;;4964594;28;20411;-75
2022/06/28 00:59:03;;;;;;;10.05;2.95;;;10.80;99.90;;;;;;4954730;28;20491;-76
2022/06/28 01:01:29;;;;;;;12.23;3.20;;;11.00;99.90;;;;;;4970314;28;20063;-76
2022/06/28 01:03:56;;;;;;;13.00;3.03;;;11.00;99.90;;;;;;4973610;28;20027;-76
2022/06/28 01:06:22;;;;;;;6.40;2.88;;;11.30;99.90;;;;;;4965162;28;20478;-76
2022/06/28 01:08:48;;;;;;;17.42;3.08;;;11.30;99.90;;;;;;4966028;28;20031;-76
2022/06/28 01:11:18;;;;;;;12.15;2.83;;;11.40;99.90;;;;;;4974323;28;20027;-76
2022/06/28 01:13:48;;;;;;;;;;;11.40;99.90;;;;;;4974552;28;20081;-76
2022/06/28 01:16:13;;;;;;;15.88;2.28;;;11.40;99.90;;;;;;4974510;28;19910;-76
2022/06/28 01:18:39;;;;;;;11.90;2.30;;;11.50;99.90;;;;;;4974268;28;20019;-76
2022/06/28 01:21:05;;;;;;;14.45;2.95;;;11.40;99.90;;;;;;4973548;28;20029;-76
2022/06/28 01:23:31;;;;;;;10.88;2.25;;;11.40;99.90;;;;;;4973526;28;20046;-76
2022/06/28 01:25:58;;;;;;;8.70;2.08;;;11.50;99.90;;;;;;4971035;28;20042;-76
2022/06/28 01:28:23;;;;;;;8.70;1.80;;;11.30;99.90;;;;;;4954676;28;20028;-76
2022/06/28 01:30:49;;;;;;;9.63;2.72;;;11.40;99.90;;;;;;4954513;28;20023;-76
2022/06/28 01:33:15;;;;;;;13.77;3.28;;;11.20;99.90;;;;;;4954539;28;20110;-76
2022/06/28 01:35:41;;;;;;;16.92;2.60;;;11.40;99.90;;;;;;4955211;28;20130;-76
2022/06/28 01:38:10;;;;;;;9.90;1.83;;;11.60;99.90;;;;;;4967020;28;20460;-76
2022/06/28 01:40:36;;;;;;;8.98;2.65;;;11.30;99.90;;;;;;4954339;28;20109;-76
2022/06/28 01:43:02;;;;;;;8.68;1.70;;;11.40;99.90;;;;;;4956801;28;20020;-76
2022/06/28 01:45:29;;;;;;;8.73;2.00;;;11.20;99.90;;;;;;4973922;28;20030;-76
2022/06/28 01:47:55;;;;;;;9.73;1.70;;;11.30;99.90;;;;;;4972759;28;20110;-76
2022/06/28 01:50:21;;;;;;;7.80;1.55;;;11.20;99.90;;;;;;4972922;28;20413;-76
2022/06/28 01:52:46;;;;;;;6.60;1.40;;;11.20;99.90;;;;;;4976962;28;20033;-76
2022/06/28 01:55:12;;;;;;;8.13;1.30;;;11.20;99.90;;;;;;4977607;28;20026;-76
2022/06/28 01:57:39;;;;;;;5.60;1.30;;;11.20;99.90;;;;;;4993446;28;20053;-76
2022/06/28 02:00:05;;;;;;;4.35;0.98;;;11.10;99.90;;;;;;4993377;28;20015;-76
2022/06/28 02:02:31;;;;;;;4.57;1.20;;;11.10;99.90;;;;;;4980771;28;20481;-76
2022/06/28 02:04:57;;;;;;;4.32;1.40;;;11.10;99.90;;;;;;4976324;28;20027;-76
2022/06/28 02:07:22;;;;;;;4.60;0.88;;;11.00;99.90;;;;;;4975915;28;20378;-76
2022/06/28 02:09:48;;;;;;;6.32;1.20;;;11.10;99.90;;;;;;4976977;28;20034;-76
2022/06/28 02:12:14;;;;;;;5.05;1.13;;;11.00;99.90;;;;;;4958426;28;20379;-76
2022/06/28 02:14:39;;;;;;;4.20;0.93;;;11.10;99.90;;;;;;4969274;28;20062;-76
2022/06/28 02:17:05;;;;;;;5.32;1.70;;;11.00;99.90;;;;;;4976664;28;20027;-76
2022/06/28 02:19:30;;;;;;;3.13;0.73;;;10.90;99.90;;;;;;4973763;28;20453;-76
2022/06/28 02:21:56;;;;;;;2.72;1.08;;;11.00;99.90;;;;;;4976358;28;20027;-75
2022/06/28 02:24:21;;;;;;;3.78;0.90;;;11.00;99.90;;;;;;4976338;28;20094;-75
2022/06/28 02:26:47;;;;;;;4.47;0.98;;;10.90;99.90;;;;;;4976689;28;20021;-75
2022/06/28 02:29:13;;;;;;;3.17;0.82;;;10.90;99.90;;;;;;4976610;28;20497;-76
2022/06/28 02:31:38;;;;;;;2.45;0.80;;;11.00;99.90;;;;;;4976667;28;20034;-76
2022/06/28 02:34:05;;;;;;;6.10;0.77;;;10.90;99.90;;;;;;4970370;28;20091;-76
2022/06/28 02:41:41;;;;;;;7.78;0.82;;;11.30;99.90;;;;;;4960073;28;20023;-77
2022/06/28 02:44:07;;;;;;;4.80;0.70;;;11.20;99.90;;;;;;4957361;28;20039;-76
2022/06/28 02:46:32;;;;;;;4.38;1.80;;;10.90;99.90;;;;;;4956872;28;20030;-76
2022/06/28 02:48:58;;;;;;;3.35;0.73;;;10.80;99.90;;;;;;4976582;28;20500;-76
2022/06/28 02:51:24;;;;;;;3.10;1.05;;;10.90;99.90;;;;;;4956894;29;20110;-76
2022/06/28 02:53:52;;;;;;;9.20;1.00;;;10.90;99.90;;;;;;4956822;29;20114;-76
2022/06/28 02:56:18;;;;;;;4.25;1.95;;;10.80;99.90;;;;;;4965854;28;20027;-76
2022/06/28 02:58:43;;;;;;;3.20;1.60;;;10.90;99.90;;;;;;4975110;28;20027;-76
2022/06/28 03:01:09;;;;;;;5.72;1.80;;;11.10;99.90;;;;;;4975594;28;20097;-76
2022/06/28 03:03:34;;;;;;;4.32;1.48;;;11.10;99.90;;;;;;4975934;28;20065;-76
2022/06/28 03:06:00;;;;;;;5.82;1.50;;;11.10;99.90;;;;;;4975104;28;20023;-76
2022/06/28 03:08:26;;;;;;;2.75;1.30;;;11.10;99.90;;;;;;4973242;28;20027;-76
2022/06/28 03:10:51;;;;;;;4.03;1.70;;;10.90;99.90;;;;;;4974025;28;20030;-76
2022/06/28 03:13:17;;;;;;;5.72;1.50;;;11.10;99.90;;;;;;4974225;28;20042;-76
2022/06/28 03:15:43;;;;;;;3.85;1.75;;;11.10;99.90;;;;;;4974141;28;20035;-76
2022/06/28 03:18:08;;;;;;;6.25;1.58;;;11.00;99.90;;;;;;4974057;28;20153;-76
2022/06/28 03:20:34;;;;;;;4.95;1.50;;;11.10;99.90;;;;;;4974616;28;20030;-76
2022/06/28 03:22:59;;;;;;;5.05;2.15;;;11.20;99.90;;;;;;4971266;28;20019;-76
2022/06/28 03:25:25;;;;;;;5.80;1.77;;;10.90;99.90;;;;;;4975047;28;20081;-76
2022/06/28 03:27:51;;;;;;;5.15;1.70;;;10.90;99.90;;;;;;4975151;28;20082;-76
2022/06/28 03:30:16;;;;;;;2.17;1.30;;;10.90;99.90;;;;;;4975576;28;20026;-77
2022/06/28 03:32:42;;;;;;;6.00;1.38;;;10.80;99.90;;;;;;4975510;28;20034;-76
2022/06/28 03:35:08;;;;;;;3.92;1.27;;;10.70;99.90;;;;;;4974018;28;20109;-76
2022/06/28 03:37:35;;;;;;;2.53;1.10;;;10.80;99.90;;;;;;4975619;28;20455;-76
2022/06/28 03:40:01;;;;;;;2.92;1.20;;;10.80;99.90;;;;;;4975238;28;20050;-76
2022/06/28 03:42:26;;;;;;;4.03;2.13;;;10.80;99.90;;;;;;4975219;28;20125;-76
2022/06/28 03:44:52;;;;;;;6.45;1.50;;;10.80;99.90;;;;;;4975538;28;20109;-76
2022/06/28 03:47:18;;;;;;;1.92;1.45;;;11.00;99.90;;;;;;4963140;28;20070;-76
2022/06/28 03:49:44;;;;;;;2.58;1.40;;;11.00;99.90;;;;;;4981363;28;20031;-76
2022/06/28 03:52:09;;;;;;;5.50;1.80;;;11.00;99.90;;;;;;4964967;28;20025;-76
2022/06/28 03:54:35;;;;;;;4.10;2.00;;;11.10;99.90;;;;;;4960412;28;20022;-76
2022/06/28 03:57:00;;;;;;;3.92;1.88;;;11.20;99.90;;;;;;4960539;28;20066;-76
2022/06/28 03:59:26;;;;;;;7.97;2.03;;;11.50;99.90;;;;;;4955891;28;20034;-76
2022/06/28 04:01:52;;;;;;;6.70;2.22;;;11.30;99.90;;;;;;4966524;28;20422;-76
2022/06/28 04:04:17;;;;;;;4.85;2.10;;;11.40;99.90;;;;;;4975312;28;20023;-76
2022/06/28 04:06:43;;;;;;;5.07;1.88;;;11.60;99.90;;;;;;4975180;28;20034;-76
2022/06/28 04:09:09;;;;;;;6.80;2.45;;;12.70;99.90;;;;;;4974483;28;20088;-76
2022/06/28 04:11:35;;;;;;;11.57;3.20;;;14.10;99.90;;;;;;4974113;28;20028;-77
2022/06/28 04:14:00;;;;;;;8.88;3.22;;;15.10;99.90;;;;;;4974736;28;20034;-76
2022/06/28 04:16:26;;;;;;;6.57;3.35;;;15.60;99.90;;;;;;4974459;28;20035;-76
2022/06/28 04:18:52;;;;;;;7.70;3.28;;;16.50;1.00;;;;;;4974093;28;20027;-76
2022/06/28 04:21:19;;;;;;;7.28;4.25;;;17.00;99.90;;;;;;4974202;28;20101;-76
2022/06/28 04:23:45;;;;;;;8.20;3.80;;;17.80;99.90;;;;;;4981738;28;20540;-76
2022/06/28 04:26:11;;;;;;;7.18;2.80;;;18.50;10.10;;;;;;4971698;28;20027;-76
2022/06/28 04:28:38;;;;;;;4.80;2.63;;;19.00;1.00;;;;;;4976831;28;20014;-76
2022/06/28 04:31:04;;;;;;;7.65;2.50;;;19.50;1.00;;;;;;4971965;28;20086;-76
2022/06/28 04:33:30;;;;;;;7.82;2.42;;;20.00;1.00;;;;;;4964692;28;20035;-76
2022/06/28 04:35:56;;;;;;;3.30;1.85;;;20.70;99.90;;;;;;4964044;28;20055;-76
2022/06/28 04:38:22;;;;;;;5.45;1.75;;;21.60;99.90;;;;;;4960057;28;20027;-76
2022/06/28 04:40:48;;;;;;;4.22;2.17;;;22.40;99.90;;;;;;4973378;28;20534;-76
2022/06/28 04:43:13;;;;;;;3.53;1.45;;;22.90;99.90;;;;;;4975098;28;20029;-76
2022/06/28 04:45:39;;;;;;;6.13;1.70;;;23.50;99.90;;;;;;4978516;28;20376;-77
2022/06/28 04:48:05;;;;;;;4.50;1.50;;;23.70;99.90;;;;;;4975517;28;20082;-76
2022/06/28 04:50:31;;;;;;;5.18;1.20;;;24.70;99.90;;;;;;4976609;28;20533;-76
2022/06/28 04:52:57;;;;;;;7.53;1.75;;;25.20;99.90;;;;;;4966693;28;20023;-76
2022/06/28 04:55:22;;;;;;;2.92;1.30;;;26.20;99.90;;;;;;4957564;28;20031;-76
2022/06/28 04:57:48;;;;;;;4.78;1.42;;;26.30;99.90;;;;;;4974448;28;20019;-76
2022/06/28 05:00:14;;;;;;;4.63;1.45;;;26.40;99.90;;;;;;4974379;28;20027;-76
2022/06/28 05:02:41;;;;;;;4.50;1.55;;;27.10;99.90;;;;;;4964919;28;20109;-76
2022/06/28 05:05:08;;;;;;;3.65;1.35;;;28.00;99.90;;;;;;4956957;28;20039;-76
2022/06/28 05:07:35;;;;;;;3.58;1.50;;;28.60;99.90;;;;;;4971505;28;20145;-77
2022/06/28 05:10:02;;;;;;;7.50;1.25;;;28.80;99.90;;;;;;4968884;28;20023;-76
2022/06/28 05:12:27;;;;;;;5.50;1.27;;;29.80;99.90;;;;;;4961212;28;20049;-78
2022/06/28 05:14:53;;;;;;;3.58;0.88;;;29.70;99.90;;;;;;4972650;28;20436;-78
2022/06/28 05:17:19;;;;;;;6.00;1.30;;;30.60;99.90;;;;;;4981471;28;20023;-78
2022/06/28 05:19:45;;;;;;;4.47;1.42;;;30.10;99.90;;;;;;4985902;28;20073;-78
2022/06/28 05:22:10;;;;;;;4.40;1.00;;;30.20;99.90;;;;;;4977930;28;20022;-77
2022/06/28 05:24:37;;;;;;;4.53;1.17;;;30.60;99.90;;;;;;4973322;28;20027;-77
2022/06/28 05:27:03;;;;;;;4.13;1.10;;;31.80;99.90;;;;;;4977937;28;20101;-78
2022/06/28 05:29:29;;;;;;;5.85;1.20;;;32.40;99.90;;;;;;4978254;28;20037;-77
2022/06/28 05:31:54;;;;;;;3.22;1.30;;;32.90;99.90;;;;;;4960325;28;20031;-78
2022/06/28 05:34:20;;;;;;;3.33;1.00;;;32.30;99.90;;;;;;4957706;28;20082;-78
2022/06/28 05:36:45;;;;;;;3.83;1.02;;;32.60;99.90;;;;;;4961848;28;20031;-78
2022/06/28 05:39:11;;;;;;;4.60;1.40;;;33.70;99.90;;;;;;4957980;29;20082;-77
2022/06/28 05:41:38;;;;;;;3.30;1.27;;;34.00;99.90;;;;;;4975856;28;20029;-76
2022/06/28 05:44:04;;;;;;;3.95;1.05;;;33.90;99.90;;;;;;4978397;28;20050;-77
2022/06/28 05:46:30;;;;;;;4.97;1.10;;;34.90;99.90;;;;;;4965551;28;20468;-76
2022/06/28 05:48:56;;;;;;;5.65;1.15;;;34.70;99.90;;;;;;4958587;28;20034;-75
2022/06/28 05:51:21;;;;;;;5.20;1.05;;;35.00;99.90;;;;;;4958406;28;20031;-75
2022/06/28 05:53:47;;;;;;;5.15;1.30;;;35.30;99.90;;;;;;4958153;28;20023;-77
2022/06/28 05:56:13;;;;;;;5.72;1.45;;;35.60;99.90;;;;;;4977375;28;20106;-75
2022/06/28 05:58:39;;;;;;;5.80;0.93;;;35.10;99.90;;;;;;4977401;28;20370;-75
2022/06/28 06:01:05;;;;;;;5.38;1.13;;;36.70;99.90;;;;;;4981165;28;20022;-75
2022/06/28 06:03:31;;;;;;;6.15;1.30;;;36.50;99.90;;;;;;4986132;28;20518;-75
2022/06/28 06:05:57;;;;;;;5.82;1.10;;;36.40;99.90;;;;;;4977075;28;20114;-75
2022/06/28 06:08:23;;;;;;;5.15;1.20;;;37.50;99.90;;;;;;4987864;28;20109;-75
2022/06/28 06:10:48;;;;;;;6.32;1.38;;;37.00;99.90;;;;;;4979511;28;20034;-75
2022/06/28 06:13:14;;;;;;;5.03;1.33;;;36.60;99.90;;;;;;4976327;28;20356;-75
2022/06/28 06:15:40;;;;;;;6.00;1.13;;;37.80;99.90;;;;;;4957436;28;20031;-75
2022/06/28 06:18:05;;;;;;;3.80;1.05;;;37.00;99.90;;;;;;4957547;28;20058;-75
2022/06/28 06:20:31;;;;;;;4.88;1.15;;;37.30;99.90;;;;;;4966154;28;20041;-75
2022/06/28 06:22:57;;;;;;;4.15;1.08;;;37.30;99.90;;;;;;4976436;28;20019;-76
2022/06/28 06:25:22;;;;;;;2.70;1.20;;;37.30;99.90;;;;;;4976943;28;20030;-75
2022/06/28 06:27:48;;;;;;;5.15;1.20;;;37.90;99.90;;;;;;4967447;28;20034;-75
2022/06/28 06:30:14;;;;;;;5.70;1.17;;;38.60;99.90;;;;;;4976818;28;20376;-74
2022/06/28 06:32:39;;;;;;;4.43;1.23;;;39.20;99.90;;;;;;4975894;28;20799;-75
2022/06/28 06:35:05;;;;;;;4.55;1.00;;;39.10;99.90;;;;;;4970601;28;20398;-75
2022/06/28 06:37:31;;;;;;;4.18;1.17;;;37.80;99.90;;;;;;4972097;28;20027;-75
2022/06/28 06:39:56;;;;;;;6.38;1.33;;;40.20;99.90;;;;;;4976263;28;20069;-75
2022/06/28 06:42:22;;;;;;;6.03;1.02;;;39.40;99.90;;;;;;4976211;28;20027;-75
2022/06/28 06:44:48;;;;;;;4.22;1.00;;;40.20;99.90;;;;;;4975808;28;20069;-75
2022/06/28 06:47:13;;;;;;;4.63;1.27;;;40.30;99.90;;;;;;4975793;28;20038;-75
2022/06/28 06:49:39;;;;;;;6.47;1.00;;;40.00;99.90;;;;;;4975531;28;20025;-75
2022/06/28 06:52:05;;;;;;;4.63;1.42;;;40.30;99.90;;;;;;4975731;28;20102;-75
2022/06/28 06:54:31;;;;;;;3.90;0.90;;;41.70;99.90;;;;;;4975228;28;20038;-75
2022/06/28 06:56:57;;;;;;;4.55;1.17;;;39.80;99.90;;;;;;4975563;28;20034;-75
2022/06/28 06:59:22;;;;;;;4.90;1.50;;;40.50;99.90;;;;;;4975229;28;20019;-75
2022/06/28 07:01:48;;;;;;;5.50;1.42;;;41.30;99.90;;;;;;4982657;28;20033;-75
2022/06/28 07:04:15;;;;;;;4.78;1.40;;;40.40;99.90;;;;;;4989964;28;20026;-75
2022/06/28 07:06:41;;;;;;;5.03;1.25;;;42.00;99.90;;;;;;4994532;28;20673;-75
2022/06/28 07:09:07;;;;;;;7.53;1.48;;;42.20;99.90;;;;;;4994288;28;20030;-75
2022/06/28 07:11:34;;;;;;;3.00;1.30;;;42.70;99.90;;;;;;4992722;28;20030;-75
2022/06/28 07:14:00;;;;;;;6.80;1.35;;;42.70;99.90;;;;;;4995263;28;20037;-75
2022/06/28 07:16:26;;;;;;;5.60;1.20;;;42.80;99.90;;;;;;4976448;28;20031;-75
2022/06/28 07:18:51;;;;;;;3.63;0.98;;;40.40;99.90;;;;;;4974487;28;20105;-75
2022/06/28 07:21:18;;;;;;;3.58;1.00;;;42.80;99.90;;;;;;4974206;28;20027;-75
2022/06/28 07:23:44;;;;;;;5.53;1.20;;;44.20;99.90;;;;;;4974376;28;20030;-75
2022/06/28 07:26:10;;;;;;;3.67;0.93;;;43.30;99.90;;;;;;4974197;28;20031;-75
2022/06/28 07:28:36;;;;;;;3.85;1.00;;;44.10;99.90;;;;;;4974069;28;20340;-75
2022/06/28 07:31:02;;;;;;;6.75;1.50;;;44.50;99.90;;;;;;4974176;28;20033;-75
2022/06/28 07:33:28;;;;;;;3.10;1.20;;;44.90;99.90;;;;;;4967977;28;20027;-75
2022/06/28 07:35:53;;;;;;;5.55;1.85;;;45.10;99.90;;;;;;4953662;28;20065;-75
2022/06/28 07:38:19;;;;;;;8.60;1.27;;;45.00;99.90;;;;;;4969344;28;20015;-76
2022/06/28 07:40:45;;;;;;;3.25;0.95;;;43.60;99.90;;;;;;4973220;28;20025;-75
2022/06/28 07:43:10;;;;;;;4.68;1.80;;;43.00;99.90;;;;;;4973900;28;20031;-75
2022/06/28 07:45:36;;;;;;;3.30;0.90;;;42.30;99.90;;;;;;4964525;28;20023;-75
2022/06/28 07:48:06;;;;;;;4.53;1.15;;;43.90;99.90;;;;;;4954433;28;20038;-75
2022/06/28 07:53:16;;;;;;;5.32;1.02;;;44.40;99.90;;;;;;4954627;29;20067;-75
2022/06/28 07:55:42;;;;;;;5.03;1.52;;;44.50;99.90;;;;;;4954247;28;20035;-74
2022/06/28 07:58:08;;;;;;;5.05;1.33;;;38.60;99.90;;;;;;4961840;28;20654;-75
2022/06/28 08:00:33;;;;;;;7.38;1.30;;;41.10;99.90;;;;;;4973676;28;20026;-75
2022/06/28 08:02:59;;;;;;;5.82;1.30;;;41.90;99.90;;;;;;4973567;28;20030;-75
2022/06/28 08:05:26;;;;;;;4.57;1.08;;;43.30;99.90;;;;;;4967233;28;20062;-75
2022/06/28 08:07:51;;;;;;;3.42;1.10;;;44.00;99.90;;;;;;4973293;28;20074;-75
2022/06/28 08:10:17;;;;;;;6.88;1.50;;;40.50;99.90;;;;;;4965273;28;20027;-75
2022/06/28 08:12:43;;;;;;;5.85;1.30;;;40.90;99.90;;;;;;4965769;28;20644;-76
2022/06/28 08:15:09;;;;;;;4.70;1.35;;;42.80;99.90;;;;;;4981283;28;20097;-75
2022/06/28 08:17:35;;;;;;;3.10;1.30;;;43.20;99.90;;;;;;4973468;28;20035;-75
2022/06/28 08:20:01;;;;;;;4.55;1.00;;;43.70;99.90;;;;;;4975741;28;20023;-75
2022/06/28 08:22:27;;;;;;;3.22;1.17;;;45.20;99.90;;;;;;4973252;28;20027;-75
2022/06/28 08:24:53;;;;;;;3.97;1.20;;;44.40;99.90;;;;;;4973463;28;20023;-74
2022/06/28 08:27:18;;;;;;;4.55;1.10;;;42.10;99.90;;;;;;4964775;28;20031;-74
2022/06/28 08:29:45;;;;;;;4.07;1.10;;;44.20;99.90;;;;;;4970126;28;20101;-74
2022/06/28 08:32:11;;;;;;;4.50;1.17;;;43.90;99.90;;;;;;4984029;28;20075;-74
2022/06/28 08:34:38;;;;;;;3.55;0.90;;;43.10;99.90;;;;;;4972433;28;20710;-74
2022/06/28 08:37:06;;;;;;;3.20;1.23;;;43.40;99.90;;;;;;4969598;28;20130;-74
2022/06/28 08:39:32;;;;;;;6.05;1.45;;;43.70;99.90;;;;;;4971935;28;20589;-74
2022/06/28 08:42:02;;;;;;;2.58;0.93;;;43.80;99.90;;;;;;4969962;28;20033;-74
2022/06/28 08:44:32;;;;;;;3.67;1.13;;;43.70;99.90;;;;;;4980476;28;20029;-74
2022/06/28 08:46:58;;;;;;;2.67;1.10;;;45.50;99.90;;;;;;4972770;28;20027;-74
2022/06/28 08:49:53;;;;;;;3.22;1.17;;;44.10;99.90;;;;;;4972610;28;20041;-74
2022/06/28 08:52:22;;;;;;;1.88;0.85;;;44.10;99.90;;;;;;4974181;28;20058;-73
2022/06/28 08:54:50;;;;;;;3.75;1.20;;;43.80;99.90;;;;;;4972782;28;20027;-74
2022/06/28 08:57:17;;;;;;;5.93;1.58;;;45.20;99.90;;;;;;4975224;28;20030;-73
2022/06/28 08:59:44;;;;;;;2.85;1.08;;;44.20;99.90;;;;;;4976691;28;20045;-74
2022/06/28 09:02:12;;;;;;;4.57;1.20;;;43.70;99.90;;;;;;4976625;28;20031;-74
2022/06/28 09:04:40;;;;;;;4.50;1.10;;;44.20;99.90;;;;;;4976470;28;20481;-74
2022/06/28 09:07:05;;;;;;;2.25;0.95;;;44.00;99.90;;;;;;4976515;28;20034;-74
2022/06/28 09:09:31;;;;;;;3.30;1.20;;;44.30;99.90;;;;;;4967752;28;20020;-73
2022/06/28 09:11:57;;;;;;;3.53;1.02;;;41.60;99.90;;;;;;4959490;28;20511;-75
2022/06/28 09:14:28;;;;;;;3.95;1.10;;;42.00;99.90;;;;;;4963123;28;20027;-75
2022/06/28 09:16:54;;;;;;;3.25;0.90;;;41.70;99.90;;;;;;4974833;28;20027;-75
2022/06/28 09:19:34;;;;;;;3.15;1.05;;;43.20;99.90;;;;;;4976390;28;20027;-75
2022/06/28 09:22:04;;;;;;;3.15;0.80;;;41.90;99.90;;;;;;4957054;28;20638;-75
2022/06/28 09:24:31;;;;;;;3.75;0.82;;;41.60;99.90;;;;;;4956979;28;20031;-75
2022/06/28 09:27:07;;;;;;;3.63;1.00;;;42.00;99.90;;;;;;4970539;28;20114;-75
2022/06/28 09:29:48;;;;;;;4.85;1.10;;;41.60;99.90;;;;;;4976262;28;20062;-75
2022/06/28 09:32:14;;;;;;;4.00;1.02;;;41.50;99.90;;;;;;4985717;28;20058;-75
2022/06/28 09:34:52;;;;;;;5.97;1.30;;;40.10;99.90;;;;;;4975703;28;20141;-75
2022/06/28 09:37:32;;;;;;;3.65;1.30;;;40.70;99.90;;;;;;4976194;28;20445;-74
2022/06/28 09:40:08;;;;;;;2.70;1.08;;;40.50;99.90;;;;;;4976123;28;20557;-75
2022/06/28 09:42:33;;;;;;;3.30;1.05;;;41.90;99.90;;;;;;4964455;28;20126;-75
2022/06/28 09:44:59;;;;;;;3.92;1.25;;;41.00;99.90;;;;;;4956603;28;20134;-74
2022/06/28 09:47:25;;;;;;;3.35;0.90;;;41.30;99.90;;;;;;4956556;28;20023;-75
2022/06/28 09:49:51;;;;;;;3.58;1.25;;;41.70;99.90;;;;;;4961637;28;20037;-75
2022/06/28 09:52:20;;;;;;;3.03;1.15;;;40.70;99.90;;;;;;4975828;28;20169;-75
2022/06/28 09:54:53;;;;;;;3.55;1.27;;;41.60;99.90;;;;;;4975649;28;20038;-75
2022/06/28 09:57:20;;;;;;;3.47;1.20;;;42.40;99.90;;;;;;4990082;28;20109;-75
2022/06/28 09:59:46;;;;;;;2.58;1.17;;;42.90;99.90;;;;;;4995051;28;20026;-74
2022/06/28 10:02:16;;;;;;;7.95;1.17;;;39.70;99.90;;;;;;4995047;28;20029;-74
2022/06/28 10:04:42;;;;;;;4.85;1.08;;;37.00;99.90;;;;;;4984414;28;20070;-75
2022/06/28 10:07:12;;;;;;;7.43;1.27;;;37.90;99.90;;;;;;4975423;28;20023;-75
2022/06/28 10:09:38;;;;;;;10.50;1.30;;;36.70;99.90;;;;;;4975390;28;20052;-74
2022/06/28 10:15:01;;;;;;;5.65;1.15;;;38.10;99.90;;;;;;4970215;28;20034;-74
2022/06/28 10:17:44;;;;;;;3.50;1.33;;;40.40;99.90;;;;;;4975483;28;20023;-75
2022/06/28 10:20:12;;;;;;;5.15;1.50;;;37.60;99.90;;;;;;4975410;28;20026;-75
2022/06/28 10:22:38;;;;;;;3.33;1.05;;;36.80;99.90;;;;;;4975227;28;20031;-75
2022/06/28 10:25:20;;;;;;;5.03;1.20;;;33.30;99.90;;;;;;4975068;28;20035;-75
2022/06/28 10:27:50;;;;;;;4.13;1.20;;;37.00;99.90;;;;;;4963306;28;20027;-75
2022/06/28 10:30:29;;;;;;;3.65;1.58;;;39.10;99.90;;;;;;4968116;28;20395;-75
2022/06/28 10:33:05;;;;;;;3.65;1.02;;;35.00;99.90;;;;;;4975221;28;20046;-75
2022/06/28 10:35:36;;;;;;;6.43;1.52;;;34.30;99.90;;;;;;4968567;28;20164;-75
2022/06/28 10:38:08;;;;;;;4.82;1.63;;;37.10;99.90;;;;;;4955706;28;20031;-75
2022/06/28 10:40:47;;;;;;;7.50;1.70;;;38.20;99.90;;;;;;4955638;28;20023;-75
2022/06/28 10:43:29;;;;;;;5.57;1.70;;;39.20;99.90;;;;;;4977496;28;20080;-75
2022/06/28 10:46:00;;;;;;;3.95;1.65;;;38.90;99.90;;;;;;4991484;28;20162;-75
2022/06/28 10:48:27;;;;;;;5.32;1.90;;;35.60;99.90;;;;;;4974890;28;20038;-75
2022/06/28 10:50:57;;;;;;;5.20;1.33;;;36.40;99.90;;;;;;4974648;28;20066;-75
2022/06/28 10:53:24;;;;;;;3.90;1.33;;;35.90;99.90;;;;;;4974654;28;20454;-74
2022/06/28 10:56:14;;;;;;;5.30;1.30;;;37.20;99.90;;;;;;4974435;28;20050;-75
2022/06/28 10:58:58;;;;;;;4.13;1.40;;;37.10;99.90;;;;;;4966780;28;20050;-75
2022/06/28 11:01:39;;;;;;;2.70;1.20;;;36.00;99.90;;;;;;4974489;28;20077;-75
2022/06/28 11:04:10;;;;;;;4.28;1.38;;;38.50;99.90;;;;;;4974608;28;20030;-75
2022/06/28 11:06:46;;;;;;;4.57;1.30;;;36.90;99.90;;;;;;4969451;28;20353;-75
2022/06/28 11:09:15;;;;;;;3.78;1.20;;;36.60;99.90;;;;;;4955253;28;20131;-75
2022/06/28 11:12:03;;;;;;;5.32;1.50;;;37.70;99.90;;;;;;4956171;28;20030;-74
2022/06/28 11:14:44;;;;;;;6.50;1.40;;;36.20;99.90;;;;;;4954963;29;20434;-75
2022/06/28 11:17:23;;;;;;;4.47;1.30;;;35.40;99.90;;;;;;4961734;28;20026;-74
2022/06/28 11:19:56;;;;;;;3.78;1.20;;;34.90;99.90;;;;;;4973682;28;20057;-74
2022/06/28 11:22:25;;;;;;;2.08;1.00;;;34.50;99.90;;;;;;4974394;28;20019;-74
2022/06/28 11:24:53;;;;;;;4.25;1.08;;;32.80;99.90;;;;;;4974109;28;20097;-74
2022/06/28 11:27:22;;;;;;;4.53;1.10;;;30.80;99.90;;;;;;4967896;28;20027;-75
2022/06/28 11:29:49;;;;;;;4.25;1.40;;;30.20;99.90;;;;;;4974115;28;20058;-75
2022/06/28 11:32:23;;;;;;;2.30;1.02;;;29.00;99.90;;;;;;4974096;28;20023;-75
2022/06/28 11:34:58;;;;;;;3.40;1.10;;;29.10;99.90;;;;;;4973385;28;20590;-75
2022/06/28 11:37:24;;;;;;;5.90;1.20;;;28.80;99.90;;;;;;4973857;28;20033;-75
2022/06/28 11:39:58;;;;;;;3.95;1.00;;;28.60;99.90;;;;;;4973732;28;20094;-75
2022/06/28 11:42:24;;;;;;;4.03;1.10;;;28.70;99.90;;;;;;4973888;28;20082;-75
2022/06/28 11:44:50;;;;;;;4.07;1.10;;;28.80;99.90;;;;;;4967352;28;20035;-75
2022/06/28 11:47:17;;;;;;;2.92;1.00;;;27.60;99.90;;;;;;4973771;28;20023;-75
2022/06/28 11:49:43;;;;;;;5.15;0.80;;;28.10;99.90;;;;;;4973872;28;20027;-75
2022/06/28 11:52:16;;;;;;;3.40;1.15;;;28.30;99.90;;;;;;4973493;28;20518;-75
2022/06/28 11:54:52;;;;;;;3.47;0.82;;;27.80;99.90;;;;;;4973352;28;20033;-75
2022/06/28 11:57:18;;;;;;;2.92;1.02;;;27.90;99.90;;;;;;4970516;28;20039;-75
2022/06/28 11:59:58;;;;;;;5.10;0.95;;;28.10;99.90;;;;;;4968369;28;20101;-75
2022/06/28 12:02:46;;;;;;;3.17;1.10;;;28.00;99.90;;;;;;4973370;28;20471;-75
2022/06/28 12:05:14;;;;;;;3.67;1.00;;;27.60;99.90;;;;;;4972060;28;20023;-75
2022/06/28 12:07:43;;;;;;;6.88;0.93;;;27.70;99.90;;;;;;4954355;28;20034;-75
2022/06/28 12:10:24;;;;;;;5.50;1.15;;;27.60;99.90;;;;;;4954177;28;20019;-75
2022/06/28 12:12:50;;;;;;;4.47;0.90;;;27.70;99.90;;;;;;4964993;28;20462;-75
2022/06/28 12:15:27;;;;;;;3.63;1.20;;;26.60;99.90;;;;;;4960023;28;20027;-74
2022/06/28 12:17:57;;;;;;;3.88;1.33;;;26.70;99.90;;;;;;4973309;28;20126;-75
2022/06/28 12:20:22;;;;;;;;;;;27.10;99.90;;;;;;4973579;28;20030;-75
2022/06/28 12:23:17;;;;;;;4.20;1.00;;;26.30;99.90;;;;;;4973517;28;19992;-75
2022/06/28 12:25:42;;;;;;;3.42;0.85;;;26.90;99.90;;;;;;4955354;28;20070;-75
2022/06/28 12:28:08;;;;;;;5.40;1.23;;;26.70;99.90;;;;;;4969112;28;20121;-75
2022/06/28 12:30:33;;;;;;;4.40;1.00;;;27.10;99.90;;;;;;4973085;28;20027;-74
2022/06/28 12:32:59;;;;;;;4.97;1.35;;;26.70;99.90;;;;;;4973454;28;20754;-74
2022/06/28 12:35:25;;;;;;;4.47;1.10;;;26.80;99.90;;;;;;4973385;28;20113;-74
2022/06/28 12:37:52;;;;;;;6.07;1.42;;;26.60;99.90;;;;;;4973488;28;20074;-75
2022/06/28 12:40:19;;;;;;;5.18;1.23;;;26.90;99.90;;;;;;4973704;28;20471;-74
2022/06/28 12:42:45;;;;;;;5.63;1.20;;;26.90;99.90;;;;;;4973613;28;20050;-74
2022/06/28 12:45:11;;;;;;;4.38;1.05;;;27.00;99.90;;;;;;4973558;28;20082;-75
2022/06/28 12:47:40;;;;;;;6.07;1.52;;;27.20;99.90;;;;;;4973304;28;20415;-74
2022/06/28 12:50:10;;;;;;;3.53;1.17;;;26.30;99.90;;;;;;4973717;28;20466;-74
2022/06/28 12:52:37;;;;;;;5.03;1.10;;;26.70;99.90;;;;;;4973388;28;20026;-75
2022/06/28 12:55:04;;;;;;;7.32;1.30;;;27.30;99.90;;;;;;4973629;28;20022;-74
2022/06/28 12:57:29;;;;;;;3.88;1.10;;;27.90;99.90;;;;;;4973350;28;20030;-75
2022/06/28 12:59:56;;;;;;;5.95;1.13;;;27.50;99.90;;;;;;4980643;28;20081;-75
2022/06/28 13:02:22;;;;;;;5.97;1.65;;;27.30;99.90;;;;;;4992751;28;20023;-76